createdAt,value
2023-01-20T00:01:37.431Z,75.76
2023-01-20T00:04:05.745Z,75.65
2023-01-20T00:06:33.702Z,75.16
2023-01-20T00:09:04.083Z,75.30
2023-01-20T00:11:33.098Z,75.94
2023-01-20T00:14:02.788Z,75.67
2023-01-20T00:16:32.029Z,74.94
2023-01-20T00:19:00.411Z,74.86
2023-01-20T00:21:28.397Z,74.80
2023-01-20T00:23:56.318Z,74.89
2023-01-20T00:26:25.195Z,74.27
2023-01-20T00:28:57.788Z,74.90
2023-01-20T00:31:28.082Z,74.48
2023-01-20T00:33:57.804Z,75.18
2023-01-20T00:36:27.608Z,75.02
2023-01-20T00:38:55.288Z,75.19
2023-01-20T00:41:23.252Z,75.22
2023-01-20T00:43:51.003Z,74.84
2023-01-20T00:46:18.596Z,75.04
2023-01-20T00:48:46.450Z,74.76
2023-01-20T00:51:14.573Z,74.88
2023-01-20T00:53:42.072Z,74.78
2023-01-20T00:56:09.595Z,74.62
2023-01-20T00:58:37.380Z,74.41
2023-01-20T01:01:05.136Z,74.32
2023-01-20T01:03:32.741Z,74.34
2023-01-20T01:06:17.213Z,73.72
2023-01-20T01:08:45.211Z,74.64
2023-01-20T01:11:13.820Z,74.77
2023-01-20T01:13:41.677Z,74.92
2023-01-20T01:16:14.288Z,74.45
2023-01-20T01:18:43.253Z,74.42
2023-01-20T01:21:13.474Z,74.82
2023-01-20T01:23:41.039Z,75.10
2023-01-20T01:26:09.512Z,75.14
2023-01-20T01:28:37.041Z,75.57
2023-01-20T01:31:06.280Z,75.90
2023-01-20T01:33:34.966Z,75.80
2023-01-20T01:36:04.229Z,75.71
2023-01-20T01:38:31.931Z,75.83
2023-01-20T01:41:00.116Z,76.13
2023-01-20T01:43:33.812Z,76.69
2023-01-20T01:46:02.054Z,76.89
2023-01-20T01:48:49.760Z,77.41
2023-01-20T01:51:28.478Z,77.37
2023-01-20T01:54:03.089Z,77.25
2023-01-20T01:56:31.159Z,76.80
2023-01-20T01:59:02.700Z,76.51
2023-01-20T02:01:34.347Z,76.03
2023-01-20T02:04:12.425Z,75.63
2023-01-20T02:06:44.041Z,75.46
2023-01-20T02:09:12.504Z,75.20
2023-01-20T02:11:48.765Z,75.42
2023-01-20T02:14:19.668Z,75.37
2023-01-20T02:17:18.600Z,75.52
2023-01-20T02:20:03.184Z,75.46
2023-01-20T02:22:39.544Z,75.59
2023-01-20T02:25:13.081Z,75.25
2023-01-20T02:27:55.907Z,75.33
2023-01-20T02:30:38.521Z,75.47
2023-01-20T02:33:18.532Z,75.59
2023-01-20T02:35:49.902Z,75.47
2023-01-20T02:38:47.504Z,75.20
2023-01-20T02:41:46.310Z,75.35
2023-01-20T02:44:31.443Z,75.13
2023-01-20T02:47:23.733Z,75.33
2023-01-20T02:50:06.993Z,75.20
2023-01-20T02:52:42.169Z,75.44
2023-01-20T02:55:15.273Z,75.08
2023-01-20T02:57:48.066Z,75.19
2023-01-20T03:00:25.550Z,75.32
2023-01-20T03:02:55.665Z,75.17
2023-01-20T03:05:29.550Z,75.10
2023-01-20T03:08:01.350Z,75.13
2023-01-20T03:10:33.657Z,75.38
2023-01-20T03:13:12.216Z,75.17
2023-01-20T03:15:58.716Z,75.22
2023-01-20T03:18:29.017Z,75.33
2023-01-20T03:20:58.848Z,75.25
2023-01-20T03:23:30.356Z,75.26
2023-01-20T03:25:59.410Z,75.48
2023-01-20T03:28:26.969Z,75.58
2023-01-20T03:30:57.697Z,75.71
2023-01-20T03:33:26.414Z,75.68
2023-01-20T03:35:54.576Z,75.62
2023-01-20T03:38:22.253Z,75.76
2023-01-20T03:41:14.677Z,76.26
2023-01-20T03:43:48.501Z,76.83
2023-01-20T03:46:27.869Z,77.02
2023-01-20T03:49:09.907Z,77.20
2023-01-20T03:51:57.077Z,77.38
2023-01-20T03:54:28.336Z,77.69
2023-01-20T03:57:04.331Z,77.40
2023-01-20T03:59:38.591Z,77.28
2023-01-20T04:02:08.728Z,77.17
2023-01-20T04:04:40.514Z,77.03
2023-01-20T04:07:12.672Z,76.94
2023-01-20T04:09:59.884Z,77.16
2023-01-20T04:12:27.463Z,77.21
2023-01-20T04:14:55.235Z,77.21
2023-01-20T04:17:28.455Z,77.39
2023-01-20T04:19:57.388Z,77.44
2023-01-20T04:22:43.023Z,77.30
2023-01-20T04:25:36.846Z,77.33
2023-01-20T04:28:04.319Z,77.52
2023-01-20T04:30:32.193Z,77.36
2023-01-20T04:32:59.708Z,77.10
2023-01-20T04:35:27.359Z,77.08
2023-01-20T04:37:55.152Z,76.96
2023-01-20T04:40:22.710Z,76.88
2023-01-20T04:42:50.308Z,76.87
2023-01-20T04:45:18.165Z,76.73
2023-01-20T04:47:45.682Z,76.89
2023-01-20T04:50:15.134Z,77.05
2023-01-20T04:52:43.684Z,77.03
2023-01-20T04:55:11.812Z,77.26
2023-01-20T04:57:40.096Z,77.44
2023-01-20T05:00:08.679Z,77.25
2023-01-20T05:02:36.233Z,77.43
2023-01-20T05:05:03.864Z,77.10
2023-01-20T05:07:31.630Z,77.06
2023-01-20T05:09:59.146Z,76.86
2023-01-20T05:12:26.603Z,76.94
2023-01-20T05:14:54.404Z,76.97
2023-01-20T05:17:21.917Z,78.26
2023-01-20T05:19:49.440Z,77.13
2023-01-20T05:22:17.262Z,77.52
2023-01-20T05:24:44.729Z,77.33
2023-01-20T05:27:12.212Z,77.33
2023-01-20T05:29:39.979Z,77.46
2023-01-20T05:32:07.503Z,77.32
2023-01-20T05:34:34.989Z,77.15
2023-01-20T05:37:02.790Z,77.09
2023-01-20T05:39:30.266Z,77.10
2023-01-20T05:41:57.784Z,76.96
2023-01-20T05:44:25.572Z,76.89
2023-01-20T05:46:53.104Z,77.07
2023-01-20T05:49:20.607Z,77.14
2023-01-20T05:51:48.395Z,77.60
2023-01-20T05:54:15.909Z,77.51
2023-01-20T05:56:43.422Z,77.72
2023-01-20T05:59:11.272Z,77.84
2023-01-20T06:01:38.786Z,77.83
2023-01-20T06:04:07.198Z,77.89
2023-01-20T06:06:34.765Z,77.72
2023-01-20T06:09:02.332Z,77.82
2023-01-20T06:11:30.093Z,77.88
2023-01-20T06:13:57.682Z,77.94
2023-01-20T06:16:25.285Z,77.83
2023-01-20T06:18:53.347Z,77.81
2023-01-20T06:21:20.963Z,77.93
2023-01-20T06:23:48.500Z,78.43
2023-01-20T06:26:16.490Z,78.47
2023-01-20T06:28:44.023Z,78.42
2023-01-20T06:31:15.093Z,78.25
2023-01-20T06:33:43.599Z,78.30
2023-01-20T06:36:17.623Z,78.40
2023-01-20T06:38:50.820Z,78.33
2023-01-20T06:41:19.752Z,78.37
2023-01-20T06:43:47.760Z,78.46
2023-01-20T06:46:16.271Z,78.37
2023-01-20T06:48:45.887Z,78.28
2023-01-20T06:51:19.652Z,78.48
2023-01-20T06:53:47.777Z,78.58
2023-01-20T06:56:15.994Z,78.80
2023-01-20T06:58:43.513Z,78.68
2023-01-20T07:01:14.003Z,78.87
2023-01-20T07:03:46.308Z,78.88
2023-01-20T07:06:18.204Z,78.74
2023-01-20T07:08:46.449Z,78.94
2023-01-20T07:11:14.185Z,78.89
2023-01-20T07:13:41.784Z,78.82
2023-01-20T07:16:12.559Z,78.99
2023-01-20T07:18:42.527Z,79.22
2023-01-20T07:21:11.742Z,79.17
2023-01-20T07:23:39.440Z,79.50
2023-01-20T07:26:12.715Z,79.34
2023-01-20T07:28:40.693Z,79.62
2023-01-20T07:31:20.147Z,79.61
2023-01-20T07:33:49.234Z,79.72
2023-01-20T07:36:17.571Z,79.68
2023-01-20T07:38:49.965Z,79.73
2023-01-20T07:41:20.008Z,79.87
2023-01-20T07:43:50.623Z,79.87
2023-01-20T07:46:19.786Z,79.71
2023-01-20T07:48:47.462Z,80.10
2023-01-20T07:51:16.953Z,80.27
2023-01-20T07:53:48.211Z,80.19
2023-01-20T07:56:18.911Z,80.40
2023-01-20T07:58:47.797Z,80.42
2023-01-20T08:01:18.306Z,80.57
2023-01-20T08:03:47.063Z,80.82
2023-01-20T08:06:17.416Z,81.14
2023-01-20T08:08:45.289Z,81.29
2023-01-20T08:11:15.096Z,81.15
2023-01-20T08:13:44.025Z,81.12
2023-01-20T08:16:14.679Z,80.96
2023-01-20T08:18:43.097Z,81.03
2023-01-20T08:21:25.694Z,80.88
2023-01-20T08:23:56.700Z,80.76
2023-01-20T08:26:25.343Z,80.75
2023-01-20T08:28:53.485Z,80.81
2023-01-20T08:31:23.211Z,80.78
2023-01-20T08:33:55.578Z,80.89
2023-01-20T08:36:27.296Z,81.04
2023-01-20T08:38:57.348Z,80.82
2023-01-20T08:41:32.587Z,81.09
2023-01-20T08:44:01.531Z,81.04
2023-01-20T08:46:29.463Z,81.43
2023-01-20T08:48:57.686Z,81.22
2023-01-20T08:51:28.648Z,81.16
2023-01-20T08:53:56.600Z,81.35
2023-01-20T08:56:24.250Z,81.34
2023-01-20T08:58:52.270Z,81.35
2023-01-20T09:01:23.694Z,81.33
2023-01-20T09:04:04.947Z,81.25
2023-01-20T09:06:50.190Z,81.06
2023-01-20T09:09:20.234Z,80.92
2023-01-20T09:11:52.126Z,80.86
2023-01-20T09:14:21.202Z,81.01
2023-01-20T09:16:49.173Z,80.85
2023-01-20T09:19:17.055Z,81.14
2023-01-20T09:21:44.581Z,81.02
2023-01-20T09:24:12.555Z,80.95
2023-01-20T09:26:40.123Z,80.49
2023-01-20T09:29:13.440Z,80.68
2023-01-20T09:31:49.156Z,80.58
2023-01-20T09:34:24.779Z,80.31
2023-01-20T09:36:55.034Z,80.17
2023-01-20T09:39:41.370Z,80.13
2023-01-20T09:42:44.659Z,80.06
2023-01-20T09:45:25.347Z,79.76
2023-01-20T09:48:14.162Z,79.99
2023-01-20T09:51:09.711Z,80.09
2023-01-20T09:53:55.569Z,80.19
2023-01-20T09:56:26.537Z,79.83
2023-01-20T09:59:02.120Z,79.96
2023-01-20T10:01:48.874Z,79.89
2023-01-20T10:04:19.473Z,80.08
2023-01-20T10:07:10.938Z,79.49
2023-01-20T10:09:46.284Z,79.63
2023-01-20T10:12:20.121Z,79.73
2023-01-20T10:14:58.538Z,79.65
2023-01-20T10:17:34.430Z,79.80
2023-01-20T10:20:42.063Z,79.88
2023-01-20T10:23:42.671Z,79.83
2023-01-20T10:26:18.878Z,80.03
2023-01-20T10:28:59.916Z,79.97
2023-01-20T10:31:31.377Z,79.65
2023-01-20T10:34:07.684Z,79.57
2023-01-20T10:36:35.492Z,79.68
2023-01-20T10:39:17.887Z,79.83
2023-01-20T10:41:52.826Z,79.80
2023-01-20T10:44:21.649Z,79.79
2023-01-20T10:46:52.443Z,79.71
2023-01-20T10:49:21.153Z,80.16
2023-01-20T10:52:04.400Z,80.56
2023-01-20T10:54:38.333Z,80.41
2023-01-20T10:57:10.523Z,80.76
2023-01-20T10:59:46.874Z,81.16
2023-01-20T11:02:38.003Z,81.03
2023-01-20T11:05:19.431Z,81.25
2023-01-20T11:07:49.161Z,81.20
2023-01-20T11:10:18.465Z,81.24
2023-01-20T11:12:50.256Z,81.23
2023-01-20T11:15:29.564Z,81.53
2023-01-20T11:18:15.659Z,81.61
2023-01-20T11:20:47.335Z,81.92
2023-01-20T11:23:36.877Z,82.39
2023-01-20T11:26:27.836Z,82.56
2023-01-20T11:28:58.591Z,82.55
2023-01-20T11:31:51.764Z,82.57
2023-01-20T11:34:24.055Z,82.52
2023-01-20T11:37:20.278Z,82.00
2023-01-20T11:39:50.800Z,82.68
2023-01-20T11:42:27.528Z,82.52
2023-01-20T11:45:20.381Z,82.82
2023-01-20T11:48:05.020Z,83.09
2023-01-20T11:50:35.767Z,82.93
2023-01-20T11:53:15.716Z,83.00
2023-01-20T11:55:48.367Z,82.98
2023-01-20T11:58:19.532Z,82.53
2023-01-20T12:00:47.831Z,82.28
2023-01-20T12:03:24.629Z,82.29
2023-01-20T12:06:23.001Z,82.69
2023-01-20T12:09:05.603Z,83.05
2023-01-20T12:12:01.545Z,83.17
2023-01-20T12:14:44.624Z,83.42
2023-01-20T12:17:27.780Z,83.37
2023-01-20T12:20:14.322Z,82.60
2023-01-20T12:23:21.178Z,83.37
2023-01-20T12:25:58.236Z,83.17
2023-01-20T12:28:37.262Z,82.67
2023-01-20T12:31:08.105Z,82.86
2023-01-20T12:33:38.689Z,82.90
2023-01-20T12:36:49.719Z,82.55
2023-01-20T12:39:20.176Z,82.75
2023-01-20T12:42:09.903Z,82.77
2023-01-20T12:44:37.371Z,83.12
2023-01-20T12:47:39.493Z,82.79
2023-01-20T12:50:33.963Z,83.42
2023-01-20T12:53:16.757Z,83.32
2023-01-20T12:56:25.775Z,83.90
2023-01-20T12:59:18.318Z,83.42
2023-01-20T13:02:16.087Z,83.43
2023-01-20T13:04:58.859Z,83.65
2023-01-20T13:07:44.900Z,83.93
2023-01-20T13:10:34.520Z,83.48
2023-01-20T13:13:18.066Z,83.75
2023-01-20T13:15:55.707Z,84.10
2023-01-20T13:18:25.923Z,83.95
2023-01-20T13:20:55.155Z,84.27
2023-01-20T13:23:32.579Z,84.47
2023-01-20T13:26:02.028Z,84.17
2023-01-20T13:28:30.592Z,83.89
2023-01-20T13:31:00.784Z,84.31
2023-01-20T13:33:28.579Z,84.48
2023-01-20T13:35:57.326Z,83.79
2023-01-20T13:38:31.083Z,84.08
2023-01-20T13:41:06.034Z,84.38
2023-01-20T13:43:42.482Z,84.83
2023-01-20T13:46:10.370Z,84.72
2023-01-20T13:48:43.760Z,84.71
2023-01-20T13:51:37.462Z,84.67
2023-01-20T13:54:36.823Z,84.79
2023-01-20T13:57:24.238Z,85.02
2023-01-20T13:59:51.748Z,85.21
2023-01-20T14:02:21.374Z,85.10
2023-01-20T14:04:50.212Z,85.54
2023-01-20T14:07:32.687Z,85.62
2023-01-20T14:10:01.430Z,85.62
2023-01-20T14:12:29.032Z,85.67
2023-01-20T14:14:56.735Z,85.91
2023-01-20T14:17:25.251Z,85.79
2023-01-20T14:19:55.676Z,85.49
2023-01-20T14:22:29.926Z,86.16
2023-01-20T14:25:00.243Z,86.10
2023-01-20T14:27:29.735Z,85.92
2023-01-20T14:30:12.406Z,86.30
2023-01-20T14:32:41.023Z,86.74
2023-01-20T14:35:18.122Z,86.73
2023-01-20T14:37:50.501Z,86.70
2023-01-20T14:40:24.338Z,86.71
2023-01-20T14:43:00.637Z,86.50
2023-01-20T14:45:31.150Z,86.30
2023-01-20T14:48:01.148Z,86.29
2023-01-20T14:50:29.737Z,86.42
2023-01-20T14:52:57.427Z,86.27
2023-01-20T14:55:36.783Z,86.41
2023-01-20T14:58:17.233Z,86.19
2023-01-20T15:00:50.174Z,86.17
2023-01-20T15:03:28.399Z,86.07
2023-01-20T15:06:22.340Z,85.76
2023-01-20T15:09:04.993Z,85.50
2023-01-20T15:11:35.716Z,85.50
2023-01-20T15:14:08.758Z,85.65
2023-01-20T15:16:36.502Z,85.39
2023-01-20T15:19:20.313Z,85.34
2023-01-20T15:21:53.765Z,85.14
2023-01-20T15:24:22.783Z,85.08
2023-01-20T15:26:53.719Z,85.31
2023-01-20T15:29:25.524Z,84.73
2023-01-20T15:31:55.817Z,84.93
2023-01-20T15:34:25.957Z,85.16
2023-01-20T15:36:55.441Z,84.95
2023-01-20T15:39:30.641Z,84.94
2023-01-20T15:41:58.734Z,84.56
2023-01-20T15:44:26.691Z,84.60
2023-01-20T15:46:57.250Z,84.61
2023-01-20T15:49:25.755Z,84.35
2023-01-20T15:51:53.429Z,84.61
2023-01-20T15:54:20.960Z,84.46
2023-01-20T15:56:48.754Z,84.57
2023-01-20T15:59:19.936Z,84.61
2023-01-20T16:01:50.123Z,84.73
2023-01-20T16:04:18.144Z,84.88
2023-01-20T16:06:45.804Z,84.92
2023-01-20T16:09:25.007Z,84.83
2023-01-20T16:11:54.586Z,85.02
2023-01-20T16:14:22.236Z,84.92
2023-01-20T16:16:49.783Z,85.14
2023-01-20T16:19:17.694Z,85.41
2023-01-20T16:21:45.686Z,85.59
2023-01-20T16:24:13.441Z,85.54
2023-01-20T16:26:44.772Z,85.52
2023-01-20T16:29:12.593Z,85.81
2023-01-20T16:31:40.187Z,85.75
2023-01-20T16:34:08.412Z,85.83
2023-01-20T16:36:35.942Z,85.91
2023-01-20T16:39:03.548Z,86.05
2023-01-20T16:41:31.334Z,86.18
2023-01-20T16:43:59.254Z,86.38
2023-01-20T16:46:29.025Z,86.48
2023-01-20T16:49:02.038Z,86.44
2023-01-20T16:51:31.043Z,86.27
2023-01-20T16:53:59.455Z,86.24
2023-01-20T16:56:29.709Z,86.52
2023-01-20T16:59:00.618Z,86.58
2023-01-20T17:01:30.302Z,86.73
2023-01-20T17:04:00.807Z,86.69
2023-01-20T17:06:31.859Z,86.69
2023-01-20T17:09:01.345Z,86.82
2023-01-20T17:11:34.884Z,86.69
2023-01-20T17:14:05.625Z,86.54
2023-01-20T17:16:33.724Z,86.51
2023-01-20T17:19:02.122Z,86.65
2023-01-20T17:21:33.465Z,86.59
2023-01-20T17:24:03.466Z,86.84
2023-01-20T17:26:31.870Z,86.87
2023-01-20T17:29:03.002Z,86.72
2023-01-20T17:31:34.425Z,86.71
2023-01-20T17:34:03.618Z,86.83
2023-01-20T17:36:34.681Z,86.79
2023-01-20T17:39:03.913Z,86.78
2023-01-20T17:41:32.332Z,86.88
2023-01-20T17:43:59.840Z,86.86
2023-01-20T17:46:29.580Z,86.70
2023-01-20T17:48:59.310Z,86.36
2023-01-20T17:51:29.000Z,86.36
2023-01-20T17:54:03.745Z,86.41
2023-01-20T17:56:31.733Z,86.53
2023-01-20T17:58:59.636Z,86.39
2023-01-20T18:01:29.578Z,86.25
2023-01-20T18:03:59.022Z,86.50
2023-01-20T18:06:28.107Z,86.51
2023-01-20T18:08:58.282Z,86.38
2023-01-20T18:11:27.826Z,86.35
2023-01-20T18:13:57.192Z,86.37
2023-01-20T18:16:28.637Z,86.14
2023-01-20T18:18:58.926Z,85.95
2023-01-20T18:21:37.223Z,86.11
2023-01-20T18:24:10.192Z,85.67
2023-01-20T18:26:39.681Z,85.60
2023-01-20T18:29:12.946Z,85.40
2023-01-20T18:31:40.855Z,85.51
2023-01-20T18:34:11.641Z,85.22
2023-01-20T18:36:41.881Z,85.21
2023-01-20T18:39:17.140Z,85.12
2023-01-20T18:41:47.518Z,85.09
2023-01-20T18:44:16.891Z,85.04
2023-01-20T18:46:45.254Z,84.50
2023-01-20T18:49:15.142Z,84.67
2023-01-20T18:51:43.888Z,84.60
2023-01-20T18:54:14.024Z,84.48
2023-01-20T18:56:41.515Z,84.43
2023-01-20T18:59:10.716Z,84.35
2023-01-20T19:01:40.159Z,84.24
2023-01-20T19:04:10.172Z,84.29
2023-01-20T19:06:42.053Z,84.14
2023-01-20T19:09:10.701Z,84.17
2023-01-20T19:11:41.375Z,84.20
2023-01-20T19:14:13.008Z,83.87
2023-01-20T19:16:45.349Z,83.94
2023-01-20T19:19:13.651Z,83.76
2023-01-20T19:21:42.144Z,83.81
2023-01-20T19:24:16.126Z,83.68
2023-01-20T19:26:44.182Z,83.81
2023-01-20T19:29:15.764Z,83.61
2023-01-20T19:31:43.931Z,83.57
2023-01-20T19:34:12.942Z,83.21
2023-01-20T19:36:40.544Z,83.07
2023-01-20T19:39:08.463Z,83.29
2023-01-20T19:41:36.633Z,83.50
2023-01-20T19:44:06.573Z,83.19
2023-01-20T19:46:36.832Z,83.04
2023-01-20T19:49:05.187Z,82.92
2023-01-20T19:51:32.735Z,82.88
2023-01-20T19:54:01.537Z,82.64
2023-01-20T19:56:32.465Z,82.68
2023-01-20T19:59:02.627Z,82.47
2023-01-20T20:01:32.767Z,82.43
2023-01-20T20:04:06.044Z,82.00
2023-01-20T20:06:45.032Z,82.11
2023-01-20T20:09:17.161Z,82.10
2023-01-20T20:11:46.988Z,82.24
2023-01-20T20:14:17.231Z,82.52
2023-01-20T20:16:45.410Z,82.31
2023-01-20T20:19:16.675Z,82.17
2023-01-20T20:21:45.414Z,82.31
2023-01-20T20:24:15.286Z,82.04
2023-01-20T20:26:45.627Z,82.22
2023-01-20T20:29:15.582Z,81.98
2023-01-20T20:31:43.265Z,81.69
2023-01-20T20:34:16.540Z,81.48
2023-01-20T20:36:44.441Z,81.43
2023-01-20T20:39:17.033Z,81.04
2023-01-20T20:41:45.830Z,80.91
2023-01-20T20:44:13.688Z,80.62
2023-01-20T20:46:41.485Z,80.59
2023-01-20T20:49:14.904Z,80.53
2023-01-20T20:51:42.466Z,80.38
2023-01-20T20:54:13.098Z,80.27
2023-01-20T20:56:40.690Z,80.11
2023-01-20T20:59:09.387Z,79.87
2023-01-20T21:01:37.835Z,80.45
2023-01-20T21:04:05.820Z,80.49
2023-01-20T21:06:33.907Z,80.16
2023-01-20T21:09:01.971Z,80.32
2023-01-20T21:11:29.777Z,80.29
2023-01-20T21:13:57.787Z,80.23
2023-01-20T21:16:26.781Z,79.94
2023-01-20T21:18:57.198Z,79.86
2023-01-20T21:21:25.402Z,79.96
2023-01-20T21:23:55.519Z,80.05
2023-01-20T21:26:25.089Z,79.87
2023-01-20T21:28:54.026Z,79.75
2023-01-20T21:31:26.066Z,80.02
2023-01-20T21:33:58.431Z,79.81
2023-01-20T21:36:27.724Z,79.73
2023-01-20T21:38:55.593Z,79.43
2023-01-20T21:41:23.287Z,79.23
2023-01-20T21:44:09.552Z,79.23
2023-01-20T21:46:39.980Z,79.15
2023-01-20T21:49:27.433Z,79.36
2023-01-20T21:52:15.085Z,79.24
2023-01-20T21:54:45.042Z,79.12
2023-01-20T21:57:14.277Z,78.98
2023-01-20T21:59:42.270Z,79.28
2023-01-20T22:02:12.574Z,78.99
2023-01-20T22:04:41.047Z,79.09
2023-01-20T22:07:08.863Z,78.98
2023-01-20T22:09:36.415Z,79.31
2023-01-20T22:12:04.651Z,78.96
2023-01-20T22:14:35.170Z,79.08
2023-01-20T22:17:02.716Z,79.38
2023-01-20T22:19:30.492Z,79.12
2023-01-20T22:21:59.419Z,79.27
2023-01-20T22:24:27.657Z,79.16
2023-01-20T22:26:55.765Z,79.08
2023-01-20T22:29:23.832Z,79.20
2023-01-20T22:31:53.681Z,79.41
2023-01-20T22:34:22.172Z,79.58
2023-01-20T22:36:49.676Z,79.94
2023-01-20T22:39:17.285Z,80.05
2023-01-20T22:41:45.142Z,80.12
2023-01-20T22:44:12.592Z,80.34
2023-01-20T22:46:40.107Z,80.75
2023-01-20T22:49:08.015Z,80.98
2023-01-20T22:51:35.543Z,80.82
2023-01-20T22:54:03.135Z,80.69
2023-01-20T22:56:32.322Z,80.37
2023-01-20T22:59:00.521Z,80.58
2023-01-20T23:01:33.936Z,80.38
2023-01-20T23:04:04.350Z,80.34
2023-01-20T23:06:34.287Z,80.28
2023-01-20T23:09:06.446Z,80.36
2023-01-20T23:11:36.496Z,80.14
2023-01-20T23:14:04.631Z,80.05
2023-01-20T23:16:32.254Z,79.98
2023-01-20T23:19:00.373Z,79.93
2023-01-20T23:21:28.311Z,79.87
2023-01-20T23:23:55.929Z,79.90
2023-01-20T23:26:33.027Z,79.90
2023-01-20T23:29:00.853Z,79.97
2023-01-20T23:31:33.150Z,80.05
2023-01-20T23:34:00.999Z,79.89
2023-01-20T23:36:28.552Z,79.88
2023-01-20T23:38:56.815Z,79.79
2023-01-20T23:41:25.544Z,79.91
2023-01-20T23:43:53.305Z,80.05
2023-01-20T23:46:21.203Z,80.12
2023-01-20T23:48:49.189Z,80.07
2023-01-20T23:51:17.029Z,80.28
2023-01-20T23:53:44.556Z,80.12
2023-01-20T23:56:20.388Z,80.12
2023-01-20T23:58:48.540Z,80.20
